Bookmark and Share
Track history (hours):
 

Trident

Last reported at 2013-Aug-19 04:29 UTC. Time now 2014-Apr-16 07:49 UTC.
Position N 38°18' E 020°41'.
Warning: this ship's position is months out of date.

Length 65 m; draft 3.6 m.

Type: Pleasure craft. MMSI: 319764000.

NotesDate/timePositionNaut miles runAvg speedWind from/ knotsBaromVisibWave heightAir tempDewpointWater temp
2013-Aug-19 04:29N 38°18' E 020°41'5 2.5
2013-Aug-19 02:33N 38°14' E 020°43'0 0.0
2013-Aug-19 00:30N 38°14' E 020°43'0 0.0
2013-Aug-18 23:30N 38°14' E 020°43'0 0.0
2013-Aug-18 22:21N 38°14' E 020°43'0 0.0
2013-Aug-18 21:30N 38°14' E 020°43'0 0.0
2013-Aug-18 20:33N 38°14' E 020°43'0 0.0
2013-Aug-18 19:33N 38°14' E 020°43'0 0.0
2013-Aug-18 18:24N 38°14' E 020°43'0 0.0
2013-Aug-18 17:24N 38°14' E 020°43'0 0.0
2013-Aug-18 16:30N 38°14' E 020°43'0 0.0
2013-Aug-18 15:30N 38°14' E 020°43'0 0.0
2013-Aug-18 06:27N 38°14' E 020°43'4 3.4
2013-Aug-18 05:16N 38°17' E 020°40'2 0.4
2013-Aug-17 23:25N 38°15' E 020°38'9 1.7
2013-Aug-17 18:24N 38°20' E 020°47'4 0.3
2013-Aug-17 04:23N 38°21' E 020°52'1213.7
2013-Aug-17 03:30N 38°09' E 020°51'10 0.4
2013-Aug-16 02:17N 38°04' E 020°40'811.2
2013-Aug-16 01:33N 38°03' E 020°51'12 0.3
2013-Aug-14 03:06N 38°14' E 020°43'0 0.0
2013-Aug-14 01:30N 38°14' E 020°43'0 0.0
2013-Aug-14 00:15N 38°14' E 020°43'0 0.0
2013-Aug-13 23:09N 38°14' E 020°43'0 0.0
2013-Aug-13 22:21N 38°14' E 020°43'0 0.0
2013-Aug-13 21:30N 38°14' E 020°43'0 0.0
2013-Aug-13 20:30N 38°14' E 020°43'0 0.0
2013-Aug-13 18:24N 38°14' E 020°43'0 0.0
2013-Aug-13 17:24N 38°14' E 020°43'0 0.0
2013-Aug-13 16:18N 38°14' E 020°43'0 0.0
2013-Aug-13 15:05N 38°14' E 020°43'0 0.0
2013-Aug-13 14:18N 38°14' E 020°43'0 0.0
2013-Aug-13 13:24N 38°14' E 020°43'0 0.0
2013-Aug-13 12:06N 38°14' E 020°43'0 0.0
2013-Aug-13 09:27N 38°14' E 020°43'0 0.0
2013-Aug-13 07:26N 38°14' E 020°43'0 0.0
2013-Aug-13 06:26N 38°14' E 020°43'0 0.0
2013-Aug-13 03:30N 38°14' E 020°43'0 0.0
2013-Aug-13 01:27N 38°14' E 020°43'0 0.0
2013-Aug-13 00:30N 38°14' E 020°43'0 0.0
2013-Aug-12 23:30N 38°14' E 020°43'0 0.0
2013-Aug-12 21:18N 38°14' E 020°43'0 0.0
2013-Aug-12 20:30N 38°14' E 020°43'0 0.0
2013-Aug-12 19:30N 38°14' E 020°43'0 0.0
2013-Aug-12 18:21N 38°14' E 020°43'0 0.0
2013-Aug-12 17:30N 38°14' E 020°43'0 0.0
2013-Aug-12 08:27N 38°14' E 020°43'0 0.0
2013-Aug-12 07:31N 38°14' E 020°43'0 0.0
2013-Aug-12 06:32N 38°14' E 020°43'1 0.4
2013-Aug-12 05:20N 38°14' E 020°43'12 1.1
2013-Aug-11 18:31N 38°25' E 020°37'1312.3
2013-Aug-11 17:30N 38°14' E 020°43'0 0.0
2013-Aug-11 05:30N 38°14' E 020°43'  

Dump ship's entire track history

sailing weather and tide predictions

Trident — ZCYT9 — position and weather